createdAt,value
2023-03-21T00:00:57.481Z,25.63
2023-03-21T00:03:26.303Z,29.83
2023-03-21T00:05:54.124Z,20.30
2023-03-21T00:10:58.232Z,24.20
2023-03-21T00:13:28.386Z,31.98
2023-03-21T00:16:21.392Z,28.60
2023-03-21T00:18:52.607Z,24.30
2023-03-21T00:21:41.050Z,18.40
2023-03-21T00:24:09.500Z,23.65
2023-03-21T00:26:38.399Z,26.60
2023-03-21T00:29:06.376Z,33.28
2023-03-21T00:34:02.093Z,34.28
2023-03-21T00:36:32.161Z,35.25
2023-03-21T00:39:01.083Z,32.25
2023-03-21T00:41:41.397Z,35.70
2023-03-21T00:44:11.852Z,28.77
2023-03-21T00:46:48.980Z,35.95
2023-03-21T00:49:21.017Z,32.97
2023-03-21T00:51:51.525Z,29.42
2023-03-21T00:54:19.828Z,34.17
2023-03-21T00:56:47.534Z,30.20
2023-03-21T00:59:15.018Z,41.08
2023-03-21T01:01:46.812Z,34.50
2023-03-21T01:04:16.781Z,32.78
2023-03-21T01:06:44.715Z,34.17
2023-03-21T01:09:16.750Z,32.92
2023-03-21T01:11:45.133Z,34.13
2023-03-21T01:14:22.641Z,36.10
2023-03-21T01:16:54.633Z,34.92
2023-03-21T01:19:40.939Z,31.70
2023-03-21T01:22:12.470Z,33.83
2023-03-21T01:27:20.712Z,30.27
2023-03-21T01:29:49.462Z,34.38
2023-03-21T01:32:17.117Z,29.92
2023-03-21T01:34:44.738Z,32.75
2023-03-21T01:37:12.110Z,38.42
2023-03-21T01:39:46.274Z,39.47
2023-03-21T01:42:14.596Z,37.95
2023-03-21T01:45:00.187Z,33.13
2023-03-21T01:47:36.770Z,33.53
2023-03-21T01:50:26.420Z,36.38
2023-03-21T01:53:14.725Z,34.13
2023-03-21T01:55:42.354Z,27.67
2023-03-21T01:58:20.115Z,37.00
2023-03-21T02:01:02.925Z,34.22
2023-03-21T02:03:52.450Z,35.47
2023-03-21T02:09:21.072Z,41.10
2023-03-21T02:11:49.388Z,41.00
2023-03-21T02:14:26.985Z,41.72
2023-03-21T02:17:42.181Z,38.05
2023-03-21T02:20:27.706Z,43.25
2023-03-21T02:23:05.004Z,40.20
2023-03-21T02:26:12.901Z,42.80
2023-03-21T02:29:01.672Z,36.20
2023-03-21T02:31:42.907Z,40.78
2023-03-21T02:34:41.927Z,43.00
2023-03-21T02:37:28.866Z,41.53
2023-03-21T02:40:14.584Z,38.17
2023-03-21T02:43:22.641Z,34.90
2023-03-21T02:45:57.941Z,41.45
2023-03-21T02:48:48.253Z,39.95
2023-03-21T02:51:22.932Z,46.33
2023-03-21T02:54:24.639Z,37.33
2023-03-21T02:56:51.482Z,40.25
2023-03-21T02:59:21.585Z,45.05
2023-03-21T03:01:52.824Z,51.70
2023-03-21T03:04:23.077Z,37.13
2023-03-21T03:06:56.310Z,39.40
2023-03-21T03:09:47.047Z,40.80
2023-03-21T03:12:27.964Z,43.65
2023-03-21T03:15:11.606Z,47.45
2023-03-21T03:18:14.469Z,41.22
2023-03-21T03:21:00.918Z,39.65
2023-03-21T03:24:01.439Z,43.53
2023-03-21T03:26:40.253Z,44.80
2023-03-21T03:29:12.357Z,45.70
2023-03-21T03:31:45.169Z,44.22
2023-03-21T03:34:16.965Z,47.92
2023-03-21T03:36:51.770Z,43.65
2023-03-21T03:39:19.802Z,41.42
2023-03-21T03:42:21.471Z,42.58
2023-03-21T03:44:58.559Z,40.67
2023-03-21T03:47:54.159Z,45.35
2023-03-21T03:50:41.611Z,37.10
2023-03-21T03:53:19.531Z,42.35
2023-03-21T03:55:51.837Z,41.05
2023-03-21T03:58:24.854Z,46.58
2023-03-21T04:00:57.283Z,40.90
2023-03-21T04:03:25.087Z,40.97
2023-03-21T04:05:54.242Z,38.42
2023-03-21T04:08:23.872Z,35.00
2023-03-21T04:10:55.017Z,39.45
2023-03-21T04:13:24.037Z,38.13
2023-03-21T04:16:07.910Z,42.75
2023-03-21T04:18:36.181Z,39.58
2023-03-21T04:21:10.927Z,50.55
2023-03-21T04:23:40.007Z,42.92
2023-03-21T04:26:08.535Z,38.20
2023-03-21T04:28:41.012Z,45.55
2023-03-21T04:31:34.067Z,42.60
2023-03-21T04:34:12.762Z,41.58
2023-03-21T04:36:46.421Z,46.03
2023-03-21T04:39:15.388Z,42.50
2023-03-21T04:41:46.968Z,44.80
2023-03-21T04:44:16.677Z,42.28
2023-03-21T04:46:45.086Z,44.17
2023-03-21T04:49:13.838Z,54.33
2023-03-21T04:51:46.367Z,49.25
2023-03-21T04:54:18.647Z,47.33
2023-03-21T04:56:46.305Z,45.35
2023-03-21T04:59:15.977Z,52.63
2023-03-21T05:01:44.054Z,48.63
2023-03-21T05:04:14.091Z,50.95
2023-03-21T05:06:46.074Z,56.60
2023-03-21T05:09:13.939Z,52.22
2023-03-21T05:11:41.867Z,41.13
2023-03-21T05:14:16.154Z,42.35
2023-03-21T05:16:56.293Z,42.22
2023-03-21T05:19:34.973Z,41.47
2023-03-21T05:22:06.298Z,35.70
2023-03-21T05:24:34.492Z,36.67
2023-03-21T05:27:02.955Z,36.03
2023-03-21T05:29:39.753Z,33.85
2023-03-21T05:32:08.638Z,28.05
2023-03-21T05:34:36.144Z,25.13
2023-03-21T05:37:03.743Z,35.25
2023-03-21T05:39:47.555Z,30.38
2023-03-21T05:42:22.671Z,24.83
2023-03-21T05:44:51.096Z,21.80
2023-03-21T05:47:23.394Z,24.83
2023-03-21T05:49:52.908Z,18.60
2023-03-21T05:52:21.968Z,23.77
2023-03-21T05:54:49.654Z,18.38
2023-03-21T05:57:20.469Z,18.52
2023-03-21T06:02:25.682Z,27.70
2023-03-21T06:04:57.552Z,19.35
2023-03-21T06:07:24.992Z,31.23
2023-03-21T06:09:52.485Z,17.75
2023-03-21T06:12:20.059Z,20.42
2023-03-21T06:15:11.589Z,17.33
2023-03-21T06:17:50.590Z,21.30
2023-03-21T06:20:20.721Z,19.25
2023-03-21T06:22:52.747Z,14.35
2023-03-21T06:25:20.312Z,23.27
2023-03-21T06:27:47.827Z,21.95
2023-03-21T06:30:18.049Z,15.93
2023-03-21T06:32:56.935Z,21.92
2023-03-21T06:35:24.758Z,14.23
2023-03-21T06:37:52.538Z,18.20
2023-03-21T06:40:21.814Z,17.25
2023-03-21T06:47:47.091Z,17.38
2023-03-21T06:50:31.033Z,18.92
2023-03-21T06:52:59.560Z,17.20
2023-03-21T06:55:30.024Z,16.35
2023-03-21T06:58:00.372Z,17.38
2023-03-21T07:00:28.688Z,14.85
2023-03-21T07:02:58.855Z,14.85
2023-03-21T07:05:27.136Z,16.73
2023-03-21T07:10:23.285Z,14.27
2023-03-21T07:13:01.011Z,24.40
2023-03-21T07:15:38.659Z,12.88
2023-03-21T07:18:08.486Z,13.20
2023-03-21T07:20:38.133Z,17.25
2023-03-21T07:23:05.951Z,11.57
2023-03-21T07:25:34.735Z,18.23
2023-03-21T07:28:03.210Z,11.73
2023-03-21T07:30:30.983Z,12.90
2023-03-21T07:32:58.430Z,17.08
2023-03-21T07:35:26.098Z,18.90
2023-03-21T07:37:54.068Z,13.25
2023-03-21T07:40:21.505Z,13.45
2023-03-21T07:42:50.985Z,18.10
2023-03-21T07:45:29.657Z,14.65
2023-03-21T07:48:01.300Z,17.60
2023-03-21T07:50:28.865Z,14.57
2023-03-21T07:52:56.708Z,17.27
2023-03-21T07:55:24.204Z,19.40
2023-03-21T07:57:52.625Z,17.00
2023-03-21T08:00:24.379Z,16.67
2023-03-21T08:03:00.695Z,10.73
2023-03-21T08:05:30.845Z,13.52
2023-03-21T08:07:58.322Z,12.50
2023-03-21T08:10:25.943Z,10.10
2023-03-21T08:12:53.739Z,20.13
2023-03-21T08:17:48.599Z,14.35
2023-03-21T08:20:21.395Z,13.10
2023-03-21T08:22:50.084Z,12.05
2023-03-21T08:25:19.661Z,13.43
2023-03-21T08:27:47.404Z,12.93
2023-03-21T08:30:18.470Z,9.85
2023-03-21T08:32:46.247Z,12.55
2023-03-21T08:35:16.316Z,13.55
2023-03-21T08:37:43.981Z,14.10
2023-03-21T08:40:14.416Z,11.77
2023-03-21T08:42:43.518Z,9.65
2023-03-21T08:45:12.147Z,11.68
2023-03-21T08:47:40.017Z,10.20
2023-03-21T08:52:37.366Z,8.57
2023-03-21T08:55:05.443Z,11.90
2023-03-21T08:57:33.520Z,7.63
2023-03-21T09:00:01.002Z,14.60
2023-03-21T09:02:28.554Z,9.00
2023-03-21T09:04:59.172Z,13.18
2023-03-21T09:07:28.019Z,13.93
2023-03-21T09:10:14.864Z,8.43
2023-03-21T09:12:43.102Z,9.27
2023-03-21T09:15:12.454Z,9.45
2023-03-21T09:17:44.000Z,7.18
2023-03-21T09:20:18.786Z,10.20
2023-03-21T09:22:47.878Z,14.15
2023-03-21T09:25:16.927Z,10.07
2023-03-21T09:27:46.024Z,7.38
2023-03-21T09:30:17.259Z,10.75
2023-03-21T09:32:48.757Z,10.10
2023-03-21T09:35:20.882Z,11.80
2023-03-21T09:37:50.114Z,7.78
2023-03-21T09:40:23.690Z,10.85
2023-03-21T09:43:50.326Z,8.75
2023-03-21T09:46:51.046Z,13.18
2023-03-21T09:49:23.239Z,10.65
2023-03-21T09:51:53.414Z,8.95
2023-03-21T09:54:29.103Z,11.02
2023-03-21T09:57:01.160Z,8.48
2023-03-21T09:59:40.177Z,12.00
2023-03-21T10:02:36.579Z,7.10
2023-03-21T10:05:12.158Z,10.60
2023-03-21T10:07:44.772Z,10.15
2023-03-21T10:10:18.760Z,9.35
2023-03-21T10:12:48.126Z,13.02
2023-03-21T10:15:21.112Z,10.57
2023-03-21T10:18:08.702Z,9.38
2023-03-21T10:23:13.233Z,6.07
2023-03-21T10:25:44.716Z,9.45
2023-03-21T10:28:18.774Z,11.10
2023-03-21T10:30:49.302Z,11.70
2023-03-21T10:33:21.067Z,9.18
2023-03-21T10:35:55.661Z,9.35
2023-03-21T10:38:26.605Z,11.07
2023-03-21T10:40:54.696Z,5.88
2023-03-21T10:43:28.393Z,10.77
2023-03-21T10:45:57.010Z,7.80
2023-03-21T10:48:24.973Z,7.95
2023-03-21T10:50:55.136Z,6.95
2023-03-21T10:53:29.872Z,9.82
2023-03-21T10:56:00.604Z,8.95
2023-03-21T10:58:33.448Z,9.90
2023-03-21T11:01:07.750Z,10.43
2023-03-21T11:03:43.768Z,10.52
2023-03-21T11:06:23.132Z,7.60
2023-03-21T11:08:54.730Z,9.20
2023-03-21T11:11:33.269Z,8.20
2023-03-21T11:14:07.122Z,12.40
2023-03-21T11:16:41.949Z,9.30
2023-03-21T11:19:19.338Z,9.07
2023-03-21T11:21:47.151Z,5.90
2023-03-21T11:26:48.256Z,7.65
2023-03-21T11:29:27.881Z,8.05
2023-03-21T11:32:12.097Z,7.75
2023-03-21T11:35:00.667Z,5.45
2023-03-21T11:37:33.855Z,6.97
2023-03-21T11:40:31.628Z,6.47
2023-03-21T11:43:27.103Z,7.47
2023-03-21T11:46:06.933Z,7.72
2023-03-21T11:48:40.873Z,6.20
2023-03-21T11:51:40.625Z,7.55
2023-03-21T11:54:11.588Z,5.88
2023-03-21T11:56:45.100Z,8.27
2023-03-21T11:59:31.273Z,6.13
2023-03-21T12:02:27.463Z,6.20
2023-03-21T12:04:58.400Z,6.78
2023-03-21T12:07:37.937Z,8.93
2023-03-21T12:10:17.519Z,6.72
2023-03-21T12:13:00.499Z,5.70
2023-03-21T12:15:43.112Z,5.70
2023-03-21T12:18:42.828Z,4.75
2023-03-21T12:21:18.073Z,7.28
2023-03-21T12:24:03.929Z,7.50
2023-03-21T12:27:00.040Z,8.50
2023-03-21T12:29:45.580Z,5.63
2023-03-21T12:32:39.321Z,8.05
2023-03-21T12:35:19.037Z,6.60
2023-03-21T12:37:57.774Z,5.75
2023-03-21T12:40:25.650Z,8.85
2023-03-21T12:43:12.376Z,5.95
2023-03-21T12:45:47.609Z,5.32
2023-03-21T12:48:22.454Z,8.13
2023-03-21T12:50:53.913Z,5.88
2023-03-21T12:53:59.218Z,5.07
2023-03-21T12:56:35.846Z,5.75
2023-03-21T12:59:15.420Z,5.00
2023-03-21T13:01:44.366Z,3.60
2023-03-21T13:04:32.894Z,4.75
2023-03-21T13:07:03.763Z,4.20
2023-03-21T13:09:40.052Z,5.00
2023-03-21T13:12:37.076Z,4.65
2023-03-21T13:15:28.711Z,5.45
2023-03-21T13:18:13.399Z,3.55
2023-03-21T13:20:45.050Z,3.80
2023-03-21T13:23:13.860Z,4.05
2023-03-21T13:25:50.557Z,5.05
2023-03-21T13:28:35.436Z,3.72
2023-03-21T13:31:19.835Z,3.65
2023-03-21T13:33:53.281Z,3.05
2023-03-21T13:36:28.454Z,5.65
2023-03-21T13:39:01.846Z,3.13
2023-03-21T13:41:37.250Z,3.50
2023-03-21T13:44:04.777Z,3.75
2023-03-21T13:46:54.561Z,7.30
2023-03-21T13:49:33.377Z,8.02
2023-03-21T13:52:21.135Z,5.57
2023-03-21T13:54:52.677Z,4.40
2023-03-21T13:57:42.186Z,3.30
2023-03-21T14:00:17.647Z,4.00
2023-03-21T14:03:08.414Z,2.88
2023-03-21T14:05:37.590Z,2.47
2023-03-21T14:08:15.269Z,3.17
2023-03-21T14:11:04.151Z,3.80
2023-03-21T14:13:35.062Z,5.03
2023-03-21T14:16:10.906Z,2.60
2023-03-21T14:18:53.893Z,4.35
2023-03-21T14:21:25.693Z,4.32
2023-03-21T14:24:13.887Z,2.75
2023-03-21T14:26:48.441Z,4.95
2023-03-21T14:29:31.602Z,4.93
2023-03-21T14:32:00.500Z,3.97
2023-03-21T14:34:30.056Z,2.65
2023-03-21T14:36:59.153Z,4.60
2023-03-21T14:39:32.129Z,2.88
2023-03-21T14:42:06.257Z,4.18
2023-03-21T14:44:52.807Z,2.75
2023-03-21T14:49:51.308Z,3.55
2023-03-21T14:52:33.922Z,3.70
2023-03-21T14:55:05.963Z,2.55
2023-03-21T14:57:34.430Z,4.22
2023-03-21T15:00:12.960Z,6.57
2023-03-21T15:02:43.406Z,4.00
2023-03-21T15:05:19.195Z,3.38
2023-03-21T15:07:59.054Z,4.15
2023-03-21T15:10:28.964Z,2.40
2023-03-21T15:12:59.812Z,2.92
2023-03-21T15:15:29.542Z,2.88
2023-03-21T15:18:03.070Z,4.03
2023-03-21T15:20:34.129Z,2.33
2023-03-21T15:23:06.337Z,4.82
2023-03-21T15:25:37.371Z,4.38
2023-03-21T15:28:06.563Z,2.95
2023-03-21T15:30:35.129Z,4.35
2023-03-21T15:33:09.924Z,2.45
2023-03-21T15:35:41.343Z,2.50
2023-03-21T15:38:34.484Z,4.20
2023-03-21T15:41:20.427Z,3.83
2023-03-21T15:44:11.686Z,3.63
2023-03-21T15:46:50.808Z,3.10
2023-03-21T15:49:30.032Z,3.13
2023-03-21T15:52:11.916Z,5.05
2023-03-21T15:54:50.332Z,7.95
2023-03-21T15:57:34.212Z,5.65
2023-03-21T16:00:20.180Z,5.75
2023-03-21T16:02:52.065Z,6.15
2023-03-21T16:05:28.337Z,5.28
2023-03-21T16:08:03.254Z,5.97
2023-03-21T16:10:41.052Z,3.80
2023-03-21T16:13:12.584Z,4.60
2023-03-21T16:15:48.102Z,5.18
2023-03-21T16:18:19.650Z,4.88
2023-03-21T16:20:48.096Z,4.60
2023-03-21T16:23:18.091Z,3.67
2023-03-21T16:25:47.037Z,3.15
2023-03-21T16:28:17.546Z,4.95
2023-03-21T16:30:45.665Z,6.50
2023-03-21T16:33:13.888Z,2.92
2023-03-21T16:35:42.834Z,3.05
2023-03-21T16:38:14.176Z,3.40
2023-03-21T16:40:43.855Z,12.43
2023-03-21T16:43:12.307Z,2.50
2023-03-21T16:45:40.600Z,4.00
2023-03-21T16:48:09.136Z,4.00
2023-03-21T16:50:42.429Z,3.15
2023-03-21T16:53:10.064Z,3.85
2023-03-21T16:55:42.336Z,4.43
2023-03-21T16:58:14.867Z,7.47
2023-03-21T17:00:43.551Z,3.65
2023-03-21T17:03:19.894Z,4.22
2023-03-21T17:05:47.578Z,4.65
2023-03-21T17:08:18.414Z,2.15
2023-03-21T17:10:47.067Z,3.45
2023-03-21T17:13:15.025Z,6.72
2023-03-21T17:15:42.526Z,3.05
2023-03-21T17:18:11.320Z,3.10
2023-03-21T17:20:42.565Z,3.53
2023-03-21T17:23:10.527Z,3.60
2023-03-21T17:25:38.975Z,2.88
2023-03-21T17:28:08.270Z,4.85
2023-03-21T17:30:40.747Z,4.50
2023-03-21T17:33:10.029Z,4.53
2023-03-21T17:35:37.508Z,3.55
2023-03-21T17:38:07.301Z,3.35
2023-03-21T17:40:34.868Z,2.22
2023-03-21T17:43:03.780Z,3.22
2023-03-21T17:45:31.578Z,4.18
2023-03-21T17:47:59.111Z,3.85
2023-03-21T17:50:30.958Z,4.90
2023-03-21T17:52:58.424Z,4.10
2023-03-21T17:55:26.277Z,3.83
2023-03-21T18:00:28.567Z,3.28
2023-03-21T18:02:57.418Z,3.28
2023-03-21T18:05:27.488Z,5.82
2023-03-21T18:08:10.239Z,5.05
2023-03-21T18:10:39.161Z,3.08
2023-03-21T18:13:07.235Z,3.22
2023-03-21T18:18:05.445Z,4.38
2023-03-21T18:23:21.559Z,4.80
2023-03-21T18:25:49.468Z,4.13
2023-03-21T18:33:40.706Z,6.20
2023-03-21T18:36:09.953Z,6.70
2023-03-21T18:38:38.131Z,4.63
2023-03-21T18:41:07.813Z,4.85
2023-03-21T18:46:24.682Z,4.45
2023-03-21T18:51:20.455Z,5.70
2023-03-21T18:53:48.078Z,5.57
2023-03-21T18:56:56.147Z,5.63
2023-03-21T18:59:04.859Z,7.97
2023-03-21T19:01:33.109Z,5.57
2023-03-21T19:04:23.950Z,5.03
2023-03-21T19:06:50.704Z,6.05
2023-03-21T19:09:18.815Z,4.75
2023-03-21T19:11:47.377Z,5.00
2023-03-21T19:14:17.024Z,5.75
2023-03-21T19:17:23.185Z,5.93
2023-03-21T19:19:33.898Z,6.75
2023-03-21T19:22:01.801Z,6.15
2023-03-21T19:29:25.548Z,6.03
2023-03-21T19:31:53.624Z,9.32
2023-03-21T19:34:21.233Z,6.32
2023-03-21T19:36:51.875Z,4.93
2023-03-21T19:39:22.979Z,8.77
2023-03-21T19:41:51.628Z,7.40
2023-03-21T19:44:21.961Z,6.28
2023-03-21T19:46:52.103Z,7.20
2023-03-21T19:49:22.105Z,5.95
2023-03-21T19:51:49.811Z,5.68
2023-03-21T19:54:20.078Z,8.40
2023-03-21T19:56:48.364Z,4.82
2023-03-21T19:59:17.352Z,5.43
2023-03-21T20:01:45.864Z,7.30
2023-03-21T20:04:14.908Z,6.72
2023-03-21T20:06:42.878Z,5.72
2023-03-21T20:09:49.207Z,6.22
2023-03-21T20:12:00.971Z,7.68
2023-03-21T20:14:28.653Z,7.10
2023-03-21T20:16:57.363Z,8.98
2023-03-21T20:19:25.226Z,7.90
2023-03-21T20:24:27.640Z,4.82
2023-03-21T20:26:55.840Z,10.15
2023-03-21T20:32:11.438Z,6.38
2023-03-21T20:34:39.381Z,8.00
2023-03-21T20:37:07.366Z,8.15
2023-03-21T20:39:35.561Z,9.80
2023-03-21T20:42:03.776Z,5.88
2023-03-21T20:47:19.519Z,7.35
2023-03-21T20:52:52.249Z,7.82
2023-03-21T20:55:03.216Z,7.78
2023-03-21T20:57:31.374Z,8.77
2023-03-21T20:59:59.189Z,5.72
2023-03-21T21:02:31.896Z,6.25
2023-03-21T21:05:24.710Z,5.65
2023-03-21T21:08:04.004Z,7.40
2023-03-21T21:10:33.729Z,6.10
2023-03-21T21:13:02.001Z,7.28
2023-03-21T21:15:29.382Z,5.43
2023-03-21T21:18:08.142Z,6.95
2023-03-21T21:20:37.429Z,8.70
2023-03-21T21:23:05.473Z,8.32
2023-03-21T21:25:34.328Z,7.95
2023-03-21T21:28:02.827Z,9.45
2023-03-21T21:30:32.729Z,7.03
2023-03-21T21:33:01.017Z,7.85
2023-03-21T21:35:28.714Z,11.90
2023-03-21T21:37:56.375Z,13.55
2023-03-21T21:40:24.817Z,10.00
2023-03-21T21:42:52.724Z,6.97
2023-03-21T21:45:20.255Z,10.73
2023-03-21T21:47:48.009Z,12.00
2023-03-21T21:50:15.650Z,11.63
2023-03-21T21:52:44.255Z,12.73
2023-03-21T21:55:13.354Z,11.80
2023-03-21T21:57:41.176Z,10.98
2023-03-21T22:02:42.059Z,8.13
2023-03-21T22:05:10.628Z,10.90
2023-03-21T22:07:39.274Z,8.95
2023-03-21T22:10:07.329Z,11.00
2023-03-21T22:12:35.119Z,8.65
2023-03-21T22:17:32.203Z,15.68
2023-03-21T22:20:06.175Z,12.88
2023-03-21T22:22:34.808Z,11.77
2023-03-21T22:25:03.814Z,13.00
2023-03-21T22:27:32.060Z,15.98
2023-03-21T22:30:04.829Z,15.40
2023-03-21T22:32:33.693Z,14.95
2023-03-21T22:35:02.562Z,13.90
2023-03-21T22:37:31.597Z,13.57
2023-03-21T22:39:59.061Z,13.48
2023-03-21T22:42:27.731Z,16.98
2023-03-21T22:44:55.145Z,9.65
2023-03-21T22:47:22.904Z,11.30
2023-03-21T22:50:03.841Z,14.25
2023-03-21T22:52:31.957Z,9.35
2023-03-21T22:54:59.302Z,15.25
2023-03-21T22:57:26.712Z,13.88
2023-03-21T22:59:54.173Z,9.93
2023-03-21T23:02:21.824Z,15.75
2023-03-21T23:04:49.292Z,14.30
2023-03-21T23:07:17.240Z,10.82
2023-03-21T23:09:44.884Z,14.43
2023-03-21T23:12:14.288Z,12.20
2023-03-21T23:14:41.734Z,12.77
2023-03-21T23:17:10.307Z,11.75
2023-03-21T23:19:40.487Z,15.98
2023-03-21T23:22:09.133Z,9.30
2023-03-21T23:24:36.699Z,11.05
2023-03-21T23:27:04.400Z,17.65
2023-03-21T23:29:32.361Z,11.20
2023-03-21T23:31:59.826Z,12.68
2023-03-21T23:34:28.188Z,9.35
2023-03-21T23:36:55.703Z,9.35
2023-03-21T23:39:23.261Z,11.23
2023-03-21T23:41:50.672Z,8.52
2023-03-21T23:44:18.127Z,12.98
2023-03-21T23:46:45.646Z,9.82
2023-03-21T23:49:15.172Z,9.30
2023-03-21T23:51:43.224Z,11.18
2023-03-21T23:54:13.702Z,10.32
2023-03-21T23:56:42.121Z,11.40
2023-03-21T23:59:09.946Z,11.98
